createdAt,value
2023-05-08T00:01:42.704Z,16.70
2023-05-08T00:04:10.780Z,16.60
2023-05-08T00:06:40.075Z,16.50
2023-05-08T00:09:07.794Z,16.50
2023-05-08T00:11:35.548Z,16.30
2023-05-08T00:14:03.254Z,16.60
2023-05-08T00:16:31.119Z,16.70
2023-05-08T00:18:59.632Z,16.50
2023-05-08T00:21:27.588Z,16.60
2023-05-08T00:23:56.713Z,16.50
2023-05-08T00:26:24.487Z,16.30
2023-05-08T00:28:52.187Z,16.30
2023-05-08T00:31:19.894Z,16.40
2023-05-08T00:33:47.594Z,16.40
2023-05-08T00:36:15.729Z,16.50
2023-05-08T00:38:43.606Z,16.50
2023-05-08T00:41:13.205Z,16.50
2023-05-08T00:43:40.941Z,16.20
2023-05-08T00:46:09.613Z,16.10
2023-05-08T00:48:37.982Z,16.40
2023-05-08T00:51:08.284Z,16.30
2023-05-08T00:53:38.968Z,16.30
2023-05-08T00:56:07.640Z,16.40
2023-05-08T00:58:36.770Z,16.30
2023-05-08T01:01:05.089Z,16.40
2023-05-08T01:03:34.096Z,16.30
2023-05-08T01:06:03.170Z,16.20
2023-05-08T01:08:32.017Z,16.20
2023-05-08T01:11:09.986Z,16.20
2023-05-08T01:13:50.886Z,16.50
2023-05-08T01:16:24.086Z,16.40
2023-05-08T01:19:04.900Z,16.30
2023-05-08T01:21:39.346Z,16.40
2023-05-08T01:24:54.763Z,16.40
2023-05-08T01:27:55.750Z,16.30
2023-05-08T01:30:44.606Z,16.40
2023-05-08T01:33:21.770Z,15.90
2023-05-08T01:35:54.043Z,16.30
2023-05-08T01:38:33.203Z,16.40
2023-05-08T01:41:08.102Z,16.30
2023-05-08T01:43:53.226Z,16.40
2023-05-08T01:46:25.100Z,16.10
2023-05-08T01:49:01.129Z,16.40
2023-05-08T01:51:32.872Z,16.20
2023-05-08T01:56:35.396Z,16.20
2023-05-08T01:59:04.805Z,16.70
2023-05-08T02:01:34.505Z,16.60
2023-05-08T02:04:04.670Z,16.30
2023-05-08T02:06:33.252Z,16.40
2023-05-08T02:09:01.577Z,16.20
2023-05-08T02:11:31.777Z,16.40
2023-05-08T02:14:01.696Z,16.40
2023-05-08T02:16:30.837Z,16.40
2023-05-08T02:19:01.386Z,16.60
2023-05-08T02:21:32.197Z,16.00
2023-05-08T02:24:01.404Z,16.20
2023-05-08T02:26:29.998Z,16.40
2023-05-08T02:28:59.087Z,16.50
2023-05-08T02:31:27.377Z,16.60
2023-05-08T02:33:56.198Z,16.40
2023-05-08T02:36:24.485Z,16.50
2023-05-08T02:38:57.075Z,16.40
2023-05-08T02:41:30.231Z,16.30
2023-05-08T02:43:58.175Z,16.20
2023-05-08T02:46:29.889Z,16.40
2023-05-08T02:49:01.244Z,16.40
2023-05-08T02:51:38.626Z,16.20
2023-05-08T02:54:22.795Z,16.10
2023-05-08T02:56:57.926Z,16.40
2023-05-08T02:59:32.199Z,16.30
2023-05-08T03:02:10.502Z,16.50
2023-05-08T03:04:45.654Z,16.10
2023-05-08T03:07:13.731Z,16.40
2023-05-08T03:09:46.247Z,16.30
2023-05-08T03:12:17.905Z,16.40
2023-05-08T03:14:53.904Z,16.10
2023-05-08T03:17:24.482Z,16.10
2023-05-08T03:20:00.532Z,16.40
2023-05-08T03:22:29.561Z,16.20
2023-05-08T03:25:00.990Z,16.30
2023-05-08T03:27:30.305Z,16.40
2023-05-08T03:29:59.223Z,16.50
2023-05-08T03:32:28.504Z,16.30
2023-05-08T03:34:59.602Z,16.30
2023-05-08T03:37:28.442Z,16.40
2023-05-08T03:39:57.966Z,16.30
2023-05-08T03:42:27.486Z,16.10
2023-05-08T03:44:55.616Z,16.50
2023-05-08T03:47:24.180Z,16.50
2023-05-08T03:49:53.638Z,16.50
2023-05-08T03:52:21.374Z,16.30
2023-05-08T03:54:49.154Z,16.50
2023-05-08T03:57:18.229Z,16.00
2023-05-08T03:59:59.638Z,16.40
2023-05-08T04:02:34.804Z,16.20
2023-05-08T04:05:07.829Z,16.30
2023-05-08T04:07:43.754Z,16.30
2023-05-08T04:10:14.397Z,16.50
2023-05-08T04:12:58.421Z,16.30
2023-05-08T04:15:30.177Z,16.20
2023-05-08T04:18:01.318Z,16.40
2023-05-08T04:20:31.522Z,16.50
2023-05-08T04:23:00.175Z,16.30
2023-05-08T04:25:29.409Z,16.20
2023-05-08T04:28:00.225Z,16.40
2023-05-08T04:30:28.140Z,16.30
2023-05-08T04:32:56.695Z,16.20
2023-05-08T04:35:24.775Z,16.10
2023-05-08T04:37:53.245Z,16.50
2023-05-08T04:40:21.056Z,16.50
2023-05-08T04:42:48.839Z,16.50
2023-05-08T04:45:18.648Z,16.50
2023-05-08T04:47:46.494Z,15.90
2023-05-08T04:50:14.365Z,16.20
2023-05-08T04:52:42.687Z,16.50
2023-05-08T04:55:11.147Z,16.50
2023-05-08T04:57:39.591Z,16.30
2023-05-08T05:00:08.845Z,16.60
2023-05-08T05:02:38.120Z,16.70
2023-05-08T05:05:06.601Z,16.40
2023-05-08T05:07:34.372Z,16.40
2023-05-08T05:10:02.166Z,16.70
2023-05-08T05:12:29.946Z,16.50
2023-05-08T05:14:57.643Z,16.60
2023-05-08T05:17:25.471Z,16.70
2023-05-08T05:19:54.601Z,16.30
2023-05-08T05:22:22.341Z,16.40
2023-05-08T05:24:50.248Z,16.70
2023-05-08T05:27:20.596Z,16.70
2023-05-08T05:29:49.038Z,16.70
2023-05-08T05:32:16.781Z,16.60
2023-05-08T05:34:44.596Z,16.80
2023-05-08T05:37:13.661Z,16.70
2023-05-08T05:39:41.356Z,16.50
2023-05-08T05:42:09.154Z,16.70
2023-05-08T05:44:37.615Z,16.90
2023-05-08T05:47:06.042Z,16.80
2023-05-08T05:49:34.338Z,16.80
2023-05-08T05:52:02.127Z,16.80
2023-05-08T05:54:31.245Z,16.80
2023-05-08T05:56:59.153Z,16.90
2023-05-08T05:59:26.910Z,16.80
2023-05-08T06:01:54.693Z,16.90
2023-05-08T06:04:22.473Z,16.90
2023-05-08T06:06:50.302Z,16.90
2023-05-08T06:09:18.009Z,16.90
2023-05-08T06:11:47.318Z,16.90
2023-05-08T06:14:15.048Z,17.00
2023-05-08T06:16:44.892Z,17.20
2023-05-08T06:19:12.876Z,17.10
2023-05-08T06:21:40.911Z,17.20
2023-05-08T06:24:09.158Z,17.40
2023-05-08T06:26:36.928Z,17.20
2023-05-08T06:29:06.170Z,17.20
2023-05-08T06:31:34.013Z,17.60
2023-05-08T06:34:01.876Z,17.40
2023-05-08T06:36:29.666Z,16.90
2023-05-08T06:38:57.376Z,17.20
2023-05-08T06:41:25.155Z,17.20
2023-05-08T06:43:52.865Z,17.40
2023-05-08T06:46:22.008Z,17.40
2023-05-08T06:48:49.789Z,17.70
2023-05-08T06:51:17.584Z,17.50
2023-05-08T06:53:45.349Z,17.50
2023-05-08T06:56:13.065Z,17.50
2023-05-08T06:58:40.896Z,17.70
2023-05-08T07:01:08.689Z,17.60
2023-05-08T07:03:38.331Z,17.30
2023-05-08T07:06:06.828Z,17.20
2023-05-08T07:08:34.650Z,17.20
2023-05-08T07:11:02.600Z,17.10
2023-05-08T07:13:30.689Z,17.60
2023-05-08T07:15:58.516Z,17.10
2023-05-08T07:18:26.279Z,17.40
2023-05-08T07:20:55.389Z,17.70
2023-05-08T07:23:23.135Z,17.60
2023-05-08T07:25:50.937Z,17.40
2023-05-08T07:28:18.694Z,17.50
2023-05-08T07:30:46.391Z,17.50
2023-05-08T07:33:14.221Z,17.60
2023-05-08T07:35:42.880Z,17.60
2023-05-08T07:38:11.973Z,17.50
2023-05-08T07:40:39.689Z,17.20
2023-05-08T07:43:07.421Z,17.50
2023-05-08T07:45:36.296Z,17.40
2023-05-08T07:48:04.138Z,17.50
2023-05-08T07:50:31.883Z,17.20
2023-05-08T07:52:59.641Z,17.50
2023-05-08T07:55:28.700Z,17.70
2023-05-08T07:57:56.424Z,17.50
2023-05-08T08:00:24.162Z,17.50
2023-05-08T08:02:53.987Z,17.50
2023-05-08T08:05:24.236Z,17.60
2023-05-08T08:07:53.940Z,17.70
2023-05-08T08:10:23.784Z,17.90
2023-05-08T08:12:55.140Z,17.90
2023-05-08T08:15:24.916Z,18.00
2023-05-08T08:17:54.565Z,18.00
2023-05-08T08:20:24.483Z,18.10
2023-05-08T08:22:54.097Z,18.20
2023-05-08T08:25:24.175Z,18.40
2023-05-08T08:27:55.426Z,18.40
2023-05-08T08:30:25.175Z,18.30
2023-05-08T08:32:55.051Z,18.50
2023-05-08T08:35:29.735Z,18.30
2023-05-08T08:37:59.562Z,18.50
2023-05-08T08:40:29.517Z,18.70
2023-05-08T08:43:01.106Z,18.50
2023-05-08T08:45:30.725Z,18.70
2023-05-08T08:48:04.717Z,18.40
2023-05-08T08:50:35.235Z,18.60
2023-05-08T08:53:16.782Z,18.50
2023-05-08T08:55:50.268Z,18.60
2023-05-08T08:58:25.719Z,18.70
2023-05-08T09:00:55.357Z,18.90
2023-05-08T09:03:23.274Z,18.70
2023-05-08T09:05:51.916Z,19.00
2023-05-08T09:08:20.069Z,18.90
2023-05-08T09:10:48.087Z,19.00
2023-05-08T09:13:17.358Z,19.10
2023-05-08T09:15:49.016Z,19.20
2023-05-08T09:18:17.469Z,18.80
2023-05-08T09:20:45.842Z,19.20
2023-05-08T09:23:17.376Z,19.30
2023-05-08T09:25:46.492Z,19.40
2023-05-08T09:28:18.309Z,18.80
2023-05-08T09:30:55.202Z,19.40
2023-05-08T09:33:26.091Z,19.30
2023-05-08T09:35:54.067Z,19.40
2023-05-08T09:38:38.474Z,19.30
2023-05-08T09:41:14.481Z,19.20
2023-05-08T09:43:43.500Z,18.70
2023-05-08T09:46:26.247Z,19.10
2023-05-08T09:48:55.797Z,18.90
2023-05-08T09:51:24.016Z,18.90
2023-05-08T09:53:53.645Z,18.80
2023-05-08T09:56:38.848Z,18.90
2023-05-08T09:59:23.709Z,18.70
2023-05-08T10:01:52.903Z,18.30
2023-05-08T10:04:33.084Z,18.40
2023-05-08T10:07:01.131Z,18.10
2023-05-08T10:09:38.861Z,18.20
2023-05-08T10:12:10.728Z,18.50
2023-05-08T10:14:38.504Z,18.50
2023-05-08T10:17:11.069Z,18.60
2023-05-08T10:19:46.945Z,18.70
2023-05-08T10:22:16.553Z,18.80
2023-05-08T10:24:46.637Z,18.60
2023-05-08T10:27:20.399Z,18.70
2023-05-08T10:29:53.640Z,18.70
2023-05-08T10:32:25.004Z,19.10
2023-05-08T10:34:54.525Z,19.10
2023-05-08T10:37:22.725Z,18.70
2023-05-08T10:39:51.123Z,19.00
2023-05-08T10:42:19.435Z,19.10
2023-05-08T10:44:47.742Z,18.80
2023-05-08T10:47:22.128Z,19.20
2023-05-08T10:50:01.250Z,19.40
2023-05-08T10:52:35.747Z,19.20
2023-05-08T10:55:20.379Z,19.50
2023-05-08T10:58:07.452Z,19.40
2023-05-08T11:01:16.119Z,19.70
2023-05-08T11:03:46.269Z,19.90
2023-05-08T11:06:16.283Z,19.80
2023-05-08T11:08:49.140Z,20.10
2023-05-08T11:11:26.812Z,20.10
2023-05-08T11:13:58.971Z,20.40
2023-05-08T11:17:03.441Z,20.20
2023-05-08T11:19:31.378Z,20.20
2023-05-08T11:22:24.396Z,20.70
2023-05-08T11:24:56.345Z,20.70
2023-05-08T11:28:05.663Z,21.00
2023-05-08T11:30:41.377Z,21.40
2023-05-08T11:33:17.240Z,21.30
2023-05-08T11:35:50.567Z,21.60
2023-05-08T11:38:25.320Z,21.20
2023-05-08T11:40:58.755Z,21.70
2023-05-08T11:43:42.137Z,21.90
2023-05-08T11:46:16.476Z,22.10
2023-05-08T11:48:44.716Z,22.00
2023-05-08T11:51:13.624Z,22.00
2023-05-08T11:53:44.746Z,22.00
2023-05-08T11:56:12.543Z,21.80
2023-05-08T11:58:40.284Z,22.10
2023-05-08T12:01:08.141Z,22.20
2023-05-08T12:03:35.996Z,22.40
2023-05-08T12:06:03.969Z,22.50
2023-05-08T12:08:31.726Z,22.60
2023-05-08T12:11:00.816Z,22.70
2023-05-08T12:13:30.588Z,22.50
2023-05-08T12:15:59.934Z,22.40
2023-05-08T12:18:30.376Z,22.10
2023-05-08T12:20:59.498Z,22.10
2023-05-08T12:23:29.242Z,22.10
2023-05-08T12:26:02.016Z,22.10
2023-05-08T12:28:30.028Z,22.00
2023-05-08T12:30:57.836Z,21.90
2023-05-08T12:33:26.112Z,22.00
2023-05-08T12:35:53.989Z,22.10
2023-05-08T12:38:27.138Z,22.10
2023-05-08T12:40:55.582Z,22.30
2023-05-08T12:43:33.032Z,22.30
2023-05-08T12:46:00.828Z,22.40
2023-05-08T12:48:29.297Z,22.40
2023-05-08T12:51:03.659Z,22.50
2023-05-08T12:53:33.003Z,22.50
2023-05-08T12:56:03.910Z,22.60
2023-05-08T12:58:35.399Z,22.60
2023-05-08T13:01:09.937Z,22.60
2023-05-08T13:03:38.344Z,22.80
2023-05-08T13:06:06.652Z,22.20
2023-05-08T13:08:36.391Z,22.70
2023-05-08T13:11:06.055Z,22.60
2023-05-08T13:13:36.590Z,23.00
2023-05-08T13:16:06.243Z,23.00
2023-05-08T13:18:36.553Z,23.00
2023-05-08T13:21:04.544Z,23.40
2023-05-08T13:23:32.494Z,23.30
2023-05-08T13:26:00.334Z,23.40
2023-05-08T13:28:28.076Z,23.70
2023-05-08T13:30:57.218Z,23.70
2023-05-08T13:33:24.954Z,23.70
2023-05-08T13:35:52.650Z,23.60
2023-05-08T13:38:20.364Z,23.50
2023-05-08T13:40:48.088Z,22.90
2023-05-08T13:43:15.796Z,23.00
2023-05-08T13:45:43.703Z,22.80
2023-05-08T13:48:12.874Z,22.50
2023-05-08T13:50:40.607Z,22.50
2023-05-08T13:53:08.449Z,22.60
2023-05-08T13:55:37.592Z,22.70
2023-05-08T13:58:05.412Z,22.70
2023-05-08T14:00:34.380Z,22.30
2023-05-08T14:03:02.320Z,22.30
2023-05-08T14:05:31.543Z,22.30
2023-05-08T14:07:59.249Z,22.30
2023-05-08T14:10:27.050Z,22.00
2023-05-08T14:12:54.811Z,22.00
2023-05-08T14:15:26.827Z,21.80
2023-05-08T14:17:59.492Z,21.70
2023-05-08T14:20:27.326Z,21.60
2023-05-08T14:22:59.788Z,21.70
2023-05-08T14:25:28.157Z,21.70
2023-05-08T14:27:55.910Z,21.50
2023-05-08T14:30:23.905Z,21.30
2023-05-08T14:32:51.726Z,21.40
2023-05-08T14:35:19.756Z,21.20
2023-05-08T14:37:47.535Z,21.30
2023-05-08T14:40:16.674Z,21.40
2023-05-08T14:42:44.366Z,21.30
2023-05-08T14:45:12.908Z,21.30
2023-05-08T14:47:40.828Z,21.20
2023-05-08T14:50:09.373Z,21.20
2023-05-08T14:52:37.091Z,21.30
2023-05-08T14:55:05.290Z,21.10
2023-05-08T14:57:34.513Z,21.00
2023-05-08T15:00:02.310Z,20.90
2023-05-08T15:02:30.143Z,20.90
2023-05-08T15:04:57.954Z,20.90
2023-05-08T15:07:25.698Z,20.70
2023-05-08T15:09:53.904Z,20.60
2023-05-08T15:12:21.664Z,20.60
2023-05-08T15:14:51.140Z,20.60
2023-05-08T15:17:18.879Z,20.40
2023-05-08T15:19:46.587Z,20.20
2023-05-08T15:22:14.567Z,20.70
2023-05-08T15:24:42.393Z,20.50
2023-05-08T15:27:11.617Z,20.70
2023-05-08T15:29:39.652Z,20.70
2023-05-08T15:32:08.890Z,20.60
2023-05-08T15:34:38.055Z,20.70
2023-05-08T15:37:06.981Z,20.60
2023-05-08T15:39:36.794Z,20.70
2023-05-08T15:42:04.953Z,20.70
2023-05-08T15:44:52.539Z,20.50
2023-05-08T15:47:22.905Z,20.50
2023-05-08T15:49:50.644Z,20.50
2023-05-08T15:52:19.591Z,20.30
2023-05-08T15:54:47.471Z,20.30
2023-05-08T15:57:15.254Z,20.40
2023-05-08T15:59:43.096Z,20.50
2023-05-08T16:02:11.105Z,20.50
2023-05-08T16:04:40.243Z,20.50
2023-05-08T16:07:07.985Z,20.40
2023-05-08T16:09:35.695Z,20.00
2023-05-08T16:12:03.416Z,20.20
2023-05-08T16:14:31.138Z,20.20
2023-05-08T16:16:58.893Z,20.30
2023-05-08T16:19:26.704Z,20.20
2023-05-08T16:21:55.825Z,20.20
2023-05-08T16:24:23.580Z,20.20
2023-05-08T16:26:51.392Z,20.20
2023-05-08T16:29:19.113Z,20.20
2023-05-08T16:31:46.912Z,19.90
2023-05-08T16:34:14.726Z,19.80
2023-05-08T16:36:42.440Z,20.30
2023-05-08T16:39:12.001Z,20.20
2023-05-08T16:41:39.735Z,19.70
2023-05-08T16:44:07.626Z,20.10
2023-05-08T16:46:35.405Z,20.00
2023-05-08T16:49:03.119Z,19.90
2023-05-08T16:51:32.215Z,19.80
2023-05-08T16:54:00.149Z,20.10
2023-05-08T16:56:29.301Z,19.60
2023-05-08T16:58:57.123Z,20.00
2023-05-08T17:01:25.049Z,20.00
2023-05-08T17:03:52.915Z,20.00
2023-05-08T17:06:20.864Z,20.00
2023-05-08T17:08:48.566Z,19.80
2023-05-08T17:11:16.306Z,20.10
2023-05-08T17:13:46.104Z,20.00
2023-05-08T17:16:13.883Z,19.90
2023-05-08T17:18:41.660Z,19.70
2023-05-08T17:21:09.448Z,19.90
2023-05-08T17:23:37.289Z,19.90
2023-05-08T17:26:05.307Z,19.80
2023-05-08T17:28:33.038Z,19.40
2023-05-08T17:31:02.251Z,19.60
2023-05-08T17:33:30.057Z,19.90
2023-05-08T17:35:57.882Z,19.80
2023-05-08T17:38:25.677Z,19.80
2023-05-08T17:40:53.454Z,19.60
2023-05-08T17:43:21.424Z,19.60
2023-05-08T17:45:49.229Z,19.30
2023-05-08T17:48:18.410Z,19.40
2023-05-08T17:50:46.822Z,19.50
2023-05-08T17:53:14.564Z,19.40
2023-05-08T17:55:42.356Z,19.30
2023-05-08T17:58:10.200Z,19.00
2023-05-08T18:00:38.584Z,19.40
2023-05-08T18:03:06.552Z,19.30
2023-05-08T18:05:35.757Z,19.00
2023-05-08T18:08:03.513Z,18.90
2023-05-08T18:10:32.197Z,18.90
2023-05-08T18:13:00.046Z,18.60
2023-05-08T18:15:28.236Z,18.90
2023-05-08T18:17:56.068Z,18.30
2023-05-08T18:20:23.798Z,18.90
2023-05-08T18:22:53.007Z,18.50
2023-05-08T18:25:21.021Z,18.30
2023-05-08T18:27:50.194Z,18.20
2023-05-08T18:30:18.161Z,18.50
2023-05-08T18:32:45.935Z,18.50
2023-05-08T18:35:13.767Z,18.30
2023-05-08T18:37:41.594Z,18.30
2023-05-08T18:40:12.121Z,18.20
2023-05-08T18:42:40.292Z,18.10
2023-05-08T18:45:09.358Z,18.10
2023-05-08T18:47:37.163Z,18.20
2023-05-08T18:50:05.398Z,18.00
2023-05-08T18:52:33.207Z,18.00
2023-05-08T18:55:00.918Z,17.60
2023-05-08T18:57:30.030Z,17.80
2023-05-08T18:59:57.777Z,17.60
2023-05-08T19:02:27.820Z,17.90
2023-05-08T19:04:55.758Z,17.90
2023-05-08T19:07:23.551Z,17.90
2023-05-08T19:09:51.373Z,18.20
2023-05-08T19:12:19.115Z,17.90
2023-05-08T19:14:48.984Z,17.60
2023-05-08T19:17:16.919Z,17.90
2023-05-08T19:19:44.685Z,17.70
2023-05-08T19:22:12.539Z,17.80
2023-05-08T19:24:40.482Z,17.50
2023-05-08T19:27:08.686Z,17.80
2023-05-08T19:29:36.522Z,17.60
2023-05-08T19:32:06.345Z,17.70
2023-05-08T19:34:36.850Z,17.70
2023-05-08T19:37:04.692Z,17.80
2023-05-08T19:39:32.544Z,17.60
2023-05-08T19:42:00.398Z,17.80
2023-05-08T19:44:28.216Z,17.70
2023-05-08T19:46:56.018Z,17.80
2023-05-08T19:49:25.192Z,17.80
2023-05-08T19:51:52.933Z,18.00
2023-05-08T19:54:20.658Z,18.00
2023-05-08T19:56:48.448Z,17.40
2023-05-08T19:59:16.288Z,17.80
2023-05-08T20:01:44.238Z,17.90
2023-05-08T20:04:12.069Z,17.80
2023-05-08T20:06:41.153Z,17.70
2023-05-08T20:09:09.088Z,17.70
2023-05-08T20:11:37.578Z,17.90
2023-05-08T20:14:05.384Z,17.80
2023-05-08T20:16:33.290Z,17.60
2023-05-08T20:19:01.590Z,18.00
2023-05-08T20:21:32.113Z,17.90
2023-05-08T20:24:01.733Z,17.90
2023-05-08T20:26:30.217Z,17.90
2023-05-08T20:28:58.159Z,17.40
2023-05-08T20:31:27.737Z,17.90
2023-05-08T20:33:55.557Z,17.80
2023-05-08T20:36:23.360Z,17.80
2023-05-08T20:38:51.243Z,17.90
2023-05-08T20:41:20.346Z,18.10
2023-05-08T20:43:48.247Z,18.00
2023-05-08T20:46:16.106Z,17.80
2023-05-08T20:48:44.333Z,17.90
2023-05-08T20:51:12.560Z,18.10
2023-05-08T20:53:41.558Z,17.50
2023-05-08T20:56:09.514Z,17.80
2023-05-08T20:58:38.998Z,17.90
2023-05-08T21:01:07.166Z,17.70
2023-05-08T21:03:36.092Z,17.70
2023-05-08T21:06:04.153Z,17.40
2023-05-08T21:08:32.002Z,17.60
2023-05-08T21:11:01.548Z,17.40
2023-05-08T21:13:29.289Z,17.60
2023-05-08T21:15:58.394Z,17.60
2023-05-08T21:18:26.190Z,17.50
2023-05-08T21:20:54.160Z,17.80
2023-05-08T21:23:22.328Z,17.40
2023-05-08T21:25:50.904Z,17.50
2023-05-08T21:28:18.815Z,17.60
2023-05-08T21:30:46.877Z,17.40
2023-05-08T21:33:15.997Z,17.70
2023-05-08T21:35:44.317Z,17.40
2023-05-08T21:38:12.737Z,17.50
2023-05-08T21:40:40.569Z,16.90
2023-05-08T21:43:08.460Z,17.40
2023-05-08T21:45:36.332Z,17.60
2023-05-08T21:48:04.393Z,17.40
2023-05-08T21:50:33.461Z,17.30
2023-05-08T21:53:01.347Z,17.30
2023-05-08T21:55:30.977Z,17.30
2023-05-08T21:58:00.043Z,17.20
2023-05-08T22:00:27.755Z,17.10
2023-05-08T22:02:55.578Z,17.40
2023-05-08T22:05:24.255Z,17.40
2023-05-08T22:07:53.814Z,17.40
2023-05-08T22:10:21.897Z,16.90
2023-05-08T22:12:49.891Z,16.80
2023-05-08T22:15:29.017Z,17.50
2023-05-08T22:17:57.266Z,16.80
2023-05-08T22:20:25.291Z,16.80
2023-05-08T22:22:54.418Z,17.10
2023-05-08T22:25:22.207Z,17.50
2023-05-08T22:27:50.032Z,17.20
2023-05-08T22:30:17.737Z,17.40
2023-05-08T22:32:46.627Z,17.60
2023-05-08T22:35:15.825Z,17.20
2023-05-08T22:37:43.688Z,17.30
2023-05-08T22:40:13.924Z,17.30
2023-05-08T22:42:41.774Z,17.20
2023-05-08T22:45:11.372Z,17.20
2023-05-08T22:47:39.448Z,17.00
2023-05-08T22:50:09.136Z,17.20
2023-05-08T22:52:37.185Z,17.00
2023-05-08T22:55:05.777Z,17.20
2023-05-08T22:57:34.882Z,17.20
2023-05-08T23:00:02.970Z,17.30
2023-05-08T23:02:32.921Z,17.20
2023-05-08T23:05:00.698Z,17.40
2023-05-08T23:07:29.143Z,17.30
2023-05-08T23:09:56.940Z,17.10
2023-05-08T23:12:24.670Z,17.50
2023-05-08T23:14:53.799Z,17.20
2023-05-08T23:17:21.641Z,17.10
2023-05-08T23:19:49.410Z,17.30
2023-05-08T23:22:17.141Z,17.10
2023-05-08T23:24:44.918Z,17.40
2023-05-08T23:27:12.794Z,17.20
2023-05-08T23:29:40.629Z,16.80
2023-05-08T23:32:09.724Z,17.30
2023-05-08T23:34:37.435Z,17.30
2023-05-08T23:37:05.223Z,17.10
2023-05-08T23:39:37.660Z,17.10
2023-05-08T23:42:05.604Z,16.40
2023-05-08T23:44:33.383Z,17.10
2023-05-08T23:47:01.223Z,16.80
2023-05-08T23:49:30.438Z,17.10
2023-05-08T23:51:58.161Z,16.80
2023-05-08T23:54:25.981Z,16.80
2023-05-08T23:56:53.664Z,17.10
2023-05-08T23:59:21.424Z,16.70
